Flight Track Log - Related Links

Times and Time Zones

All times are in EDT time to prevent confusion due to time zone crossing. See the N193DC flight status page for this flight to view local times or setup timezone preferences in your user account.

Time Position Orientation Groundspeed Altitude Reporting Facility
EDT Latitude Longitude Course Direction KTS MPH feet Rate Location/Type
Fri 07:14:00 PM 40.8164 -81.6406 237° Southwest  Level Estimated
Fri 07:15:00 PM 40.7999 -81.6734 236° Southwest  Level Estimated
Fri 07:16:00 PM 40.7834 -81.7062 236° Southwest  Level Estimated
Fri 07:16:51 PM 40.7953 -81.6656 236° Southwest 85 98 5,900  Level Indianapolis Center
Fri 07:17:00 PM 40.7669 -81.7389 236° Southwest  Level Estimated
Fri 07:17:52 PM 40.7764 -81.7033 237° Southwest 102 117 5,900  Level Indianapolis Center
Fri 07:18:00 PM 40.7504 -81.7717 236° Southwest  Level Estimated
Fri 07:18:54 PM 40.7575 -81.7397 236° Southwest 114 131 6,000  Level Indianapolis Center
Fri 07:19:00 PM 40.7339 -81.8044 236° Southwest  Level Estimated
Fri 07:19:55 PM 40.7406 -81.7758 238° Southwest 115 132 6,000  Level Indianapolis Center
Fri 07:20:00 PM 40.7174 -81.8371 236° Southwest  Level Estimated
Fri 07:20:56 PM 40.7222 -81.8108 235° Southwest 115 132 6,000  Level Indianapolis Center
Fri 07:21:00 PM 40.7009 -81.8698 236° Southwest  Level Estimated
Fri 07:21:58 PM 40.7039 -81.8475 237° Southwest 118 136 6,000  Level Indianapolis Center
Fri 07:22:00 PM 40.6843 -81.9024 236° Southwest  Level Estimated
Fri 07:22:59 PM 40.6864 -81.8828 237° Southwest 116 133 6,000  Level Indianapolis Center
Fri 07:24:01 PM 40.6692 -81.9175 237° Southwest 113 130 6,000  Level Indianapolis Center
Fri 07:25:02 PM 40.6519 -81.9547 239° Southwest 116 133 6,000  Level Indianapolis Center
Fri 07:26:04 PM 40.6336 -81.9917 237° Southwest 118 136 6,000  Level Indianapolis Center
Fri 07:27:05 PM 40.6153 -82.0250 234° Southwest 112 129 6,000  Level Indianapolis Center
Fri 07:28:06 PM 40.5969 -82.0600 235° Southwest 114 131 6,000  Level Indianapolis Center
Fri 07:29:08 PM 40.5808 -82.0967 240° Southwest 114 131 6,000  Level Indianapolis Center
Fri 07:30:09 PM 40.5619 -82.1311 234° Southwest 114 131 6,000  Level Indianapolis Center
Fri 07:30:58 PM 40.5444 -82.1636 235° Southwest 118 136 6,000  Level Indianapolis Center
Fri 07:32:12 PM 40.5239 -82.2072 238° Southwest 114 131 6,000  Level Indianapolis Center
Fri 07:33:14 PM 40.5042 -82.2419 233° Southwest 116 133 6,000  Level Indianapolis Center
Fri 07:34:13 PM 40.4825 -82.2725 227° Southwest 119 137 6,000  Level Indianapolis Center
Fri 07:35:17 PM 40.4586 -82.3058 227° Southwest 119 137 6,000  Level Indianapolis Center
Fri 07:36:18 PM 40.4356 -82.3392 228° Southwest 122 140 6,000  Level Indianapolis Center
Fri 07:37:20 PM 40.4136 -82.3708 228° Southwest 119 137 6,000 -98 Level Indianapolis Center
Fri 07:38:21 PM 40.3914 -82.4061 230° Southwest 121 139 5,800 -390 Descending Indianapolis Center
Fri 07:39:23 PM 40.3667 -82.4389 225° Southwest 126 145 5,200 -585 Descending Indianapolis Center
Fri 07:40:24 PM 40.3439 -82.4736 229° Southwest 124 143 4,600 -590 Descending Indianapolis Center
Fri 07:41:25 PM 40.3161 -82.5131 227° Southwest 124 143 4,000 -295 Descending Indianapolis Center
Fri 07:42:26 PM 40.2964 -82.5458 232° Southwest 118 136 4,000  Level Indianapolis Center
Fri 07:43:27 PM 40.2750 -82.5725 224° Southwest 110 127 4,000  Level Indianapolis Center
Fri 07:44:27 PM 40.2533 -82.6022 226° Southwest 110 127 4,000  Level Indianapolis Center
Fri 07:45:28 PM 40.2314 -82.6344 228° Southwest 109 125 4,000  Level Indianapolis Center
Fri 07:46:34 PM 40.2106 -82.6661 229° Southwest 111 128 4,000  Level Indianapolis Center
Fri 07:47:35 PM 40.1919 -82.6994 234° Southwest 111 128 4,000 -341 Level Indianapolis Center
Fri 07:48:37 PM 40.1669 -82.7300 223° Southwest 115 132 3,300 -488 Descending Indianapolis Center
Fri 07:49:38 PM 40.1436 -82.7625 227° Southwest 120 138 3,000 -141 Descending Indianapolis Center
Fri 07:50:45 PM 40.1197 -82.7975 228° Southwest 108 124 3,000  Level Indianapolis Center

Login

Don't have an account? Register now (free) for customized features, flight alerts, and more!